Time;durP1;ratioP1;P1;durP2;ratioP2;P2;SDS_P1;SDS_P2;PMS_P1;PMS_P2;Temp;Humidity;BMP_temperature;BMP_pressure;BME280_temperature;BME280_humidity;BME280_pressure;Samples;Min_cycle;Max_cycle;Signal;HPM_P1;HPM_P2
2022/10/07 00:01:00;;;;;;;1.67;0.88;;;8.80;90.30;;;;;;4903372;29;20051;-83
2022/10/07 00:03:28;;;;;;;3.70;0.80;;;8.80;90.30;;;;;;4919184;29;20047;-83
2022/10/07 00:06:05;;;;;;;2.20;0.75;;;8.80;90.40;;;;;;4934909;29;20098;-82
2022/10/07 00:08:36;;;;;;;2.08;0.50;;;8.80;90.40;;;;;;4935160;29;20079;-82
2022/10/07 00:11:12;;;;;;;2.92;0.40;;;8.70;90.40;;;;;;4919022;29;20047;-83
2022/10/07 00:13:42;;;;;;;1.63;0.60;;;8.70;90.40;;;;;;4934685;29;20036;-83
2022/10/07 00:16:12;;;;;;;0.95;0.60;;;8.70;90.40;;;;;;4934759;29;20039;-83
2022/10/07 00:18:40;;;;;;;1.52;0.57;;;8.70;90.40;;;;;;4934578;29;20048;-83
2022/10/07 00:21:10;;;;;;;1.65;0.50;;;8.60;90.40;;;;;;4934639;29;20448;-83
2022/10/07 00:23:39;;;;;;;1.52;0.60;;;8.60;90.40;;;;;;4934585;29;20051;-83
2022/10/07 00:26:10;;;;;;;1.90;0.50;;;8.60;90.40;;;;;;4919045;29;20056;-82
2022/10/07 00:28:38;;;;;;;1.42;0.60;;;8.60;90.50;;;;;;4919160;29;20044;-83
2022/10/07 00:31:08;;;;;;;1.95;1.00;;;8.60;90.50;;;;;;4918750;29;20047;-83
2022/10/07 00:33:38;;;;;;;3.97;0.77;;;8.60;90.50;;;;;;4918960;29;20047;-83
2022/10/07 00:36:16;;;;;;;2.80;0.57;;;8.50;90.50;;;;;;4919371;29;20046;-83
2022/10/07 00:38:44;;;;;;;1.63;0.68;;;8.50;90.50;;;;;;4919002;29;20138;-83
2022/10/07 00:41:18;;;;;;;3.75;0.80;;;8.50;90.60;;;;;;4918875;29;20055;-83
2022/10/07 00:43:48;;;;;;;1.52;0.40;;;8.50;90.60;;;;;;4933776;29;20520;-83
2022/10/07 00:46:33;;;;;;;1.65;0.50;;;8.40;90.60;;;;;;4918453;29;20059;-83
2022/10/07 00:49:12;;;;;;;1.58;0.65;;;8.40;90.60;;;;;;4938828;29;20052;-83
2022/10/07 00:51:41;;;;;;;2.05;0.63;;;8.40;90.90;;;;;;4934442;29;20107;-82
2022/10/07 00:54:12;;;;;;;1.58;0.50;;;8.40;90.60;;;;;;4933988;29;20044;-82
2022/10/07 00:56:42;;;;;;;1.35;0.43;;;8.40;90.70;;;;;;4918511;29;20053;-83
2022/10/07 00:59:11;;;;;;;1.65;0.55;;;8.40;90.70;;;;;;4918725;29;20118;-83
2022/10/07 01:01:40;;;;;;;2.03;0.52;;;8.40;90.70;;;;;;4918337;29;20542;-83
2022/10/07 01:04:11;;;;;;;0.93;0.35;;;8.30;90.70;;;;;;4934267;29;20079;-83
2022/10/07 01:06:41;;;;;;;1.42;0.40;;;8.40;90.70;;;;;;4918205;29;20056;-84
2022/10/07 01:09:11;;;;;;;1.08;0.50;;;8.30;90.70;;;;;;4918611;29;20548;-83
2022/10/07 01:11:41;;;;;;;1.25;0.60;;;8.30;90.70;;;;;;4918489;29;20055;-83
2022/10/07 01:14:18;;;;;;;2.05;0.52;;;8.30;90.70;;;;;;4918204;29;20051;-83
2022/10/07 01:16:58;;;;;;;1.67;0.43;;;8.30;90.70;;;;;;4933904;29;20040;-83
2022/10/07 01:19:48;;;;;;;2.40;0.50;;;8.30;90.70;;;;;;4931289;29;20055;-83
2022/10/07 01:22:29;;;;;;;1.60;0.60;;;8.30;90.70;;;;;;4933945;29;20086;-83
2022/10/07 01:24:59;;;;;;;2.08;0.55;;;8.20;91.00;;;;;;4934123;29;20559;-84
2022/10/07 01:27:28;;;;;;;1.73;0.40;;;8.20;90.70;;;;;;4934206;29;20119;-83
2022/10/07 01:30:04;;;;;;;1.05;0.50;;;8.20;90.70;;;;;;4918240;29;20473;-84
2022/10/07 01:32:46;;;;;;;7.18;1.40;;;8.20;90.80;;;;;;4918545;29;20056;-84
2022/10/07 01:35:22;;;;;;;1.67;0.40;;;8.20;90.70;;;;;;4933872;29;20107;-83
2022/10/07 01:37:54;;;;;;;2.25;0.52;;;8.20;90.80;;;;;;4933971;29;20058;-83
2022/10/07 01:40:27;;;;;;;1.55;0.68;;;8.20;90.80;;;;;;4933755;29;20485;-84
2022/10/07 01:42:56;;;;;;;0.70;0.30;;;8.20;90.80;;;;;;4918215;29;20047;-84
2022/10/07 01:45:26;;;;;;;1.15;0.30;;;8.10;90.80;;;;;;4930432;29;20047;-83
2022/10/07 01:47:53;;;;;;;0.80;0.40;;;8.10;90.80;;;;;;4933668;29;20047;-84
2022/10/07 01:50:25;;;;;;;1.48;0.45;;;8.10;90.80;;;;;;4918247;29;20135;-83
2022/10/07 01:53:11;;;;;;;1.73;0.50;;;8.10;90.80;;;;;;4933566;29;20044;-83
2022/10/07 01:56:11;;;;;;;0.93;0.47;;;8.10;90.80;;;;;;4950009;29;20047;-83
2022/10/07 01:59:10;;;;;;;1.77;0.30;;;8.10;91.10;;;;;;4920041;29;20048;-83
2022/10/07 02:01:47;;;;;;;1.55;0.63;;;8.10;90.90;;;;;;4927700;29;20404;-82
2022/10/07 02:04:46;;;;;;;3.58;0.40;;;8.10;90.90;;;;;;4921361;29;20050;-83
2022/10/07 02:07:41;;;;;;;1.65;0.60;;;8.10;90.90;;;;;;4937018;29;20043;-83
2022/10/07 02:10:40;;;;;;;1.17;0.35;;;8.00;90.90;;;;;;4937144;29;20047;-83
2022/10/07 02:13:20;;;;;;;1.45;0.57;;;8.00;90.90;;;;;;4908588;29;20051;-82
2022/10/07 02:16:11;;;;;;;1.13;0.50;;;8.00;90.90;;;;;;4936979;29;20052;-83
2022/10/07 02:18:42;;;;;;;1.75;0.40;;;7.90;90.90;;;;;;4911143;29;20043;-83
2022/10/07 02:21:10;;;;;;;0.90;0.43;;;7.90;90.90;;;;;;4921105;29;20051;-83
2022/10/07 02:23:40;;;;;;;1.67;0.50;;;7.90;90.90;;;;;;4921043;29;20048;-83
2022/10/07 02:26:12;;;;;;;1.75;0.47;;;7.90;91.20;;;;;;4920849;29;20051;-82
2022/10/07 02:28:42;;;;;;;2.08;0.40;;;7.90;90.90;;;;;;4936553;29;20044;-82
2022/10/07 02:31:16;;;;;;;1.85;0.40;;;7.90;91.00;;;;;;4936258;29;20044;-83
2022/10/07 02:33:46;;;;;;;0.85;0.35;;;7.90;91.00;;;;;;4920757;29;20500;-83
2022/10/07 02:36:20;;;;;;;1.55;0.45;;;7.90;91.00;;;;;;4936682;29;20052;-83
2022/10/07 02:38:47;;;;;;;0.85;0.40;;;7.90;91.00;;;;;;4936595;29;20467;-83
2022/10/07 02:41:31;;;;;;;1.67;0.40;;;7.90;91.00;;;;;;4920682;29;20047;-82
2022/10/07 02:44:45;;;;;;;2.00;0.50;;;7.90;91.00;;;;;;4936372;29;20515;-83
2022/10/07 02:47:52;;;;;;;1.08;0.47;;;7.80;91.00;;;;;;4936619;29;20054;-83
2022/10/07 02:50:26;;;;;;;1.02;0.30;;;7.80;91.00;;;;;;4936126;29;20134;-83
2022/10/07 02:52:55;;;;;;;1.60;0.40;;;7.80;91.10;;;;;;4936070;29;20051;-83
2022/10/07 02:55:25;;;;;;;1.00;0.40;;;7.80;91.10;;;;;;4920353;29;20048;-82
2022/10/07 02:58:00;;;;;;;1.05;0.40;;;7.80;91.10;;;;;;4937616;29;20135;-83
2022/10/07 03:00:32;;;;;;;2.30;0.52;;;7.80;91.10;;;;;;4935618;29;20044;-83
2022/10/07 03:03:01;;;;;;;1.15;0.30;;;7.70;91.10;;;;;;4920635;29;20079;-83
2022/10/07 03:05:48;;;;;;;1.58;0.40;;;7.70;91.10;;;;;;4934890;29;20401;-83
2022/10/07 03:08:15;;;;;;;1.50;0.57;;;7.70;91.40;;;;;;4935980;29;20075;-83
2022/10/07 03:10:44;;;;;;;1.77;0.38;;;7.70;91.10;;;;;;4920302;29;20071;-83
2022/10/07 03:13:14;;;;;;;1.80;0.50;;;7.70;91.10;;;;;;4920405;29;20048;-83
2022/10/07 03:15:47;;;;;;;1.20;0.40;;;7.70;91.20;;;;;;4920422;29;20052;-83
2022/10/07 03:18:28;;;;;;;1.10;0.40;;;7.70;91.20;;;;;;4920673;29;20043;-83
2022/10/07 03:21:17;;;;;;;2.08;0.50;;;7.70;91.20;;;;;;4923402;29;20047;-83
2022/10/07 03:23:52;;;;;;;0.93;0.30;;;7.70;91.20;;;;;;4935518;29;20048;-83
2022/10/07 03:26:23;;;;;;;2.10;0.50;;;7.60;91.20;;;;;;4935403;29;20055;-83
2022/10/07 03:28:50;;;;;;;1.38;0.55;;;7.60;91.20;;;;;;4919827;29;20178;-83
2022/10/07 03:31:26;;;;;;;0.70;0.38;;;7.60;91.20;;;;;;4919699;29;20039;-82
2022/10/07 03:33:56;;;;;;;1.67;0.35;;;7.60;91.20;;;;;;4920287;29;20044;-83
2022/10/07 03:36:24;;;;;;;1.25;0.40;;;7.60;91.20;;;;;;4935169;29;20064;-82
2022/10/07 03:38:54;;;;;;;1.77;0.55;;;7.60;91.20;;;;;;4919530;29;20055;-82
2022/10/07 03:41:23;;;;;;;1.38;0.35;;;7.60;91.20;;;;;;4935160;29;20044;-82
2022/10/07 03:43:58;;;;;;;1.25;0.40;;;7.60;91.30;;;;;;4904914;29;20059;-82
2022/10/07 03:46:26;;;;;;;1.45;0.50;;;7.50;91.30;;;;;;4920449;29;20560;-82
2022/10/07 03:48:54;;;;;;;2.50;0.50;;;7.50;91.30;;;;;;4919438;29;20472;-82
2022/10/07 03:51:22;;;;;;;1.83;0.38;;;7.50;91.30;;;;;;4935039;29;20106;-83
2022/10/07 03:53:53;;;;;;;1.40;0.50;;;7.50;91.30;;;;;;4919184;29;20489;-82
2022/10/07 03:56:20;;;;;;;2.17;0.50;;;7.50;91.30;;;;;;4904180;29;20040;-82
2022/10/07 03:58:48;;;;;;;1.60;0.43;;;7.50;91.30;;;;;;4919306;29;20404;-83
2022/10/07 04:01:16;;;;;;;1.42;0.40;;;7.50;91.30;;;;;;4919094;29;20143;-82
2022/10/07 04:03:48;;;;;;;;;;;7.50;91.30;;;;;;4920284;29;20142;-82
2022/10/07 04:06:15;;;;;;;0.77;0.40;;;7.50;91.30;;;;;;4919321;29;19922;-82
2022/10/07 04:08:43;;;;;;;0.80;0.38;;;7.50;91.30;;;;;;4919413;29;20050;-82
2022/10/07 04:11:11;;;;;;;0.98;0.40;;;7.50;91.30;;;;;;4916035;29;20056;-83
2022/10/07 04:13:41;;;;;;;1.38;0.60;;;7.40;91.30;;;;;;4934303;29;20055;-83
2022/10/07 04:16:09;;;;;;;1.05;0.40;;;7.50;91.30;;;;;;4934266;29;20048;-82
2022/10/07 04:18:37;;;;;;;0.60;0.22;;;7.40;91.30;;;;;;4934639;29;20044;-82
2022/10/07 04:21:05;;;;;;;0.73;0.30;;;7.40;91.30;;;;;;4934514;29;20550;-82
2022/10/07 04:23:35;;;;;;;0.43;0.30;;;7.40;91.40;;;;;;4919095;29;20054;-82
2022/10/07 04:26:10;;;;;;;0.68;0.30;;;7.40;91.40;;;;;;4934475;29;20052;-82
2022/10/07 04:28:42;;;;;;;1.38;0.38;;;7.40;91.40;;;;;;4908883;29;20052;-82
2022/10/07 04:31:12;;;;;;;1.75;0.50;;;7.40;91.40;;;;;;4934839;29;20052;-82
2022/10/07 04:33:45;;;;;;;2.50;0.50;;;7.40;91.40;;;;;;4919186;29;20051;-82
2022/10/07 04:36:18;;;;;;;1.08;0.32;;;7.40;91.50;;;;;;4919527;29;20082;-82
2022/10/07 04:38:58;;;;;;;1.42;0.40;;;7.40;91.50;;;;;;4920703;29;20424;-82
2022/10/07 04:41:30;;;;;;;2.47;0.47;;;7.40;91.50;;;;;;4919203;29;20043;-82
2022/10/07 04:43:57;;;;;;;0.80;0.32;;;7.40;91.50;;;;;;4918688;29;20039;-82
2022/10/07 04:46:28;;;;;;;1.65;0.40;;;7.40;91.50;;;;;;4918965;29;20043;-82
2022/10/07 04:49:09;;;;;;;1.38;0.70;;;7.40;91.50;;;;;;4920418;29;20052;-83
2022/10/07 04:51:36;;;;;;;0.80;0.50;;;7.30;91.50;;;;;;4903345;29;20174;-83
2022/10/07 04:54:04;;;;;;;2.00;0.50;;;7.30;91.50;;;;;;4919086;29;20062;-86
2022/10/07 04:56:38;;;;;;;2.65;0.50;;;7.30;91.50;;;;;;4919591;29;20072;-82
2022/10/07 04:59:08;;;;;;;1.00;0.45;;;7.30;91.50;;;;;;4918661;29;20139;-81
2022/10/07 05:01:40;;;;;;;1.85;0.40;;;7.30;91.50;;;;;;4934091;29;20063;-82
2022/10/07 05:04:10;;;;;;;0.65;0.25;;;7.30;91.50;;;;;;4918734;29;20099;-82
2022/10/07 05:06:37;;;;;;;1.25;0.40;;;7.30;91.60;;;;;;4905277;29;20060;-81
2022/10/07 05:09:05;;;;;;;0.93;0.20;;;7.20;91.50;;;;;;4915890;29;20048;-81
2022/10/07 05:11:36;;;;;;;1.25;0.35;;;7.20;91.50;;;;;;4919521;29;20110;-85
2022/10/07 05:14:09;;;;;;;0.65;0.30;;;7.20;91.60;;;;;;4934067;29;20055;-84
2022/10/07 05:16:36;;;;;;;1.05;0.43;;;7.20;91.60;;;;;;4933846;29;20048;-84
2022/10/07 05:19:04;;;;;;;1.25;0.30;;;7.20;91.60;;;;;;4918519;29;20047;-83
2022/10/07 05:21:32;;;;;;;1.25;0.38;;;7.20;91.60;;;;;;4902587;29;20074;-84
2022/10/07 05:24:01;;;;;;;2.03;0.40;;;7.10;91.60;;;;;;4914844;29;20131;-84
2022/10/07 05:26:35;;;;;;;1.70;0.30;;;7.10;91.60;;;;;;4919183;29;20055;-83
2022/10/07 05:29:05;;;;;;;2.67;0.30;;;7.10;91.60;;;;;;4920531;29;20416;-83
2022/10/07 05:31:41;;;;;;;0.43;0.25;;;7.10;91.60;;;;;;4937573;29;20407;-82
2022/10/07 05:34:09;;;;;;;1.90;0.32;;;7.10;91.60;;;;;;4937704;29;20086;-86
2022/10/07 05:36:37;;;;;;;1.15;0.30;;;7.10;91.60;;;;;;4922348;29;20048;-86
2022/10/07 05:39:06;;;;;;;0.98;0.28;;;7.10;91.60;;;;;;4938495;29;20548;-86
2022/10/07 05:41:42;;;;;;;0.68;0.20;;;7.10;91.60;;;;;;4923521;29;20099;-87
2022/10/07 05:44:16;;;;;;;0.93;0.30;;;7.10;91.60;;;;;;4922808;29;20047;-83
2022/10/07 05:46:43;;;;;;;0.55;0.30;;;7.10;91.60;;;;;;4937326;29;20048;-82
2022/10/07 05:49:12;;;;;;;1.55;0.30;;;7.10;91.60;;;;;;4906639;29;20039;-82
2022/10/07 05:51:40;;;;;;;1.65;0.30;;;7.10;91.60;;;;;;4921972;29;20051;-81
2022/10/07 05:54:07;;;;;;;0.77;0.30;;;7.10;91.60;;;;;;4921509;29;20060;-82
2022/10/07 05:56:39;;;;;;;1.15;0.40;;;7.10;91.60;;;;;;4922138;29;20050;-82
2022/10/07 05:59:06;;;;;;;0.77;0.30;;;7.10;91.60;;;;;;4905951;29;20079;-82
2022/10/07 06:01:35;;;;;;;0.90;0.47;;;7.10;91.60;;;;;;4921410;29;20440;-82
2022/10/07 06:04:10;;;;;;;0.52;0.30;;;7.10;91.60;;;;;;4922052;29;20047;-82
2022/10/07 06:06:39;;;;;;;1.80;0.40;;;7.10;91.60;;;;;;4921719;29;20110;-82
2022/10/07 06:14:44;;;;;;;1.73;0.55;;;7.20;91.60;;;;;;4923461;29;20411;-81
2022/10/07 06:17:12;;;;;;;0.93;0.30;;;7.20;91.60;;;;;;4905316;29;20068;-81
2022/10/07 06:19:40;;;;;;;1.02;0.40;;;7.20;91.60;;;;;;4936676;29;20514;-81
2022/10/07 06:22:08;;;;;;;1.42;0.40;;;7.20;91.60;;;;;;4921008;29;20051;-81
2022/10/07 06:24:36;;;;;;;0.93;0.30;;;7.20;91.60;;;;;;4921508;29;20404;-81
2022/10/07 06:27:04;;;;;;;1.98;0.40;;;7.30;91.60;;;;;;4921034;29;20044;-81
2022/10/07 06:29:31;;;;;;;1.65;0.40;;;7.30;91.50;;;;;;4920727;29;20051;-81
2022/10/07 06:31:59;;;;;;;0.80;0.30;;;7.30;91.50;;;;;;4920917;29;20058;-81
2022/10/07 06:34:26;;;;;;;0.85;0.30;;;7.40;91.50;;;;;;4920690;29;20047;-81
2022/10/07 06:36:55;;;;;;;2.75;0.50;;;7.40;91.50;;;;;;4921299;29;20095;-81
2022/10/07 06:39:23;;;;;;;0.93;0.30;;;7.50;91.50;;;;;;4890374;29;20047;-81
2022/10/07 06:41:53;;;;;;;1.27;0.40;;;7.50;91.40;;;;;;4920928;29;20040;-81
2022/10/07 06:44:29;;;;;;;1.13;0.30;;;7.60;91.40;;;;;;4922067;29;20416;-82
2022/10/07 06:46:57;;;;;;;1.90;0.35;;;7.60;91.40;;;;;;4936174;29;20059;-81
2022/10/07 06:49:25;;;;;;;0.82;0.20;;;7.70;91.30;;;;;;4920624;29;20126;-82
2022/10/07 06:51:53;;;;;;;1.35;0.30;;;7.70;91.30;;;;;;4920672;29;20519;-82
2022/10/07 06:54:20;;;;;;;1.13;0.20;;;7.80;91.30;;;;;;4920510;29;20559;-82
2022/10/07 06:56:47;;;;;;;0.70;0.30;;;7.90;91.20;;;;;;4920356;29;20381;-82
2022/10/07 06:59:14;;;;;;;2.72;0.40;;;8.00;91.20;;;;;;4920400;29;20051;-82
2022/10/07 07:01:55;;;;;;;1.30;0.32;;;8.10;91.20;;;;;;4935944;29;20055;-82
2022/10/07 07:04:24;;;;;;;0.30;0.20;;;8.20;91.10;;;;;;4920344;29;20052;-82
2022/10/07 07:06:50;;;;;;;0.85;0.30;;;8.20;91.00;;;;;;4936275;29;20051;-82
2022/10/07 07:09:21;;;;;;;0.73;0.30;;;8.30;91.00;;;;;;4935940;29;20063;-82
2022/10/07 07:11:50;;;;;;;1.23;0.30;;;8.40;91.00;;;;;;4905368;29;20047;-82
2022/10/07 07:14:26;;;;;;;1.85;0.43;;;8.50;91.00;;;;;;4935670;29;20055;-82
2022/10/07 07:17:02;;;;;;;0.82;0.35;;;8.70;91.00;;;;;;4921140;29;20044;-82
2022/10/07 07:19:30;;;;;;;0.85;0.30;;;8.90;90.90;;;;;;4920273;29;20448;-82
2022/10/07 07:21:57;;;;;;;0.98;0.40;;;9.10;90.70;;;;;;4920010;29;20481;-82
2022/10/07 07:24:26;;;;;;;2.03;0.60;;;9.30;90.60;;;;;;4935618;29;20056;-82
2022/10/07 07:26:53;;;;;;;1.10;0.30;;;9.50;90.50;;;;;;4919955;29;20059;-82
2022/10/07 07:29:23;;;;;;;1.77;0.30;;;9.60;90.40;;;;;;4935449;29;20168;-82
2022/10/07 07:31:54;;;;;;;0.97;0.30;;;9.60;90.40;;;;;;4920809;29;20079;-82
2022/10/07 07:34:24;;;;;;;1.58;0.30;;;9.80;90.40;;;;;;4920385;29;20295;-82
2022/10/07 07:36:51;;;;;;;3.50;0.30;;;9.80;90.40;;;;;;4919704;29;20134;-83
2022/10/07 07:39:22;;;;;;;1.35;0.25;;;9.80;90.40;;;;;;4920234;29;20043;-82
2022/10/07 07:41:59;;;;;;;2.17;0.30;;;9.90;90.40;;;;;;4920943;29;20099;-82
2022/10/07 07:44:28;;;;;;;0.77;0.25;;;9.90;90.40;;;;;;4919935;29;20063;-82
2022/10/07 07:47:01;;;;;;;1.60;0.40;;;10.00;90.50;;;;;;4935318;29;20130;-82
2022/10/07 07:49:31;;;;;;;3.58;0.73;;;10.00;90.40;;;;;;4934989;29;20078;-82
2022/10/07 07:51:59;;;;;;;2.38;0.50;;;10.10;90.40;;;;;;4918820;29;20532;-83
2022/10/07 07:54:31;;;;;;;3.53;1.05;;;10.20;90.40;;;;;;4919913;29;20050;-82
2022/10/07 07:56:58;;;;;;;3.38;0.50;;;10.30;90.40;;;;;;4919749;29;20039;-82
2022/10/07 07:59:30;;;;;;;3.78;0.57;;;10.40;90.30;;;;;;4919703;29;20048;-82
2022/10/07 08:01:58;;;;;;;1.80;0.38;;;10.50;90.30;;;;;;4919623;29;20083;-81
2022/10/07 08:04:25;;;;;;;1.25;0.40;;;10.60;90.30;;;;;;4919531;29;20048;-81
2022/10/07 08:06:53;;;;;;;3.08;0.70;;;10.60;90.30;;;;;;4919211;29;20053;-81
2022/10/07 08:09:23;;;;;;;3.25;0.50;;;10.70;90.30;;;;;;4919200;29;20138;-81
2022/10/07 08:11:50;;;;;;;3.25;0.73;;;10.90;90.20;;;;;;4934694;29;20052;-81
2022/10/07 08:14:17;;;;;;;2.65;0.50;;;11.10;90.10;;;;;;4918964;29;20047;-82
2022/10/07 08:16:49;;;;;;;2.83;0.88;;;11.20;90.00;;;;;;4919273;29;20044;-81
2022/10/07 08:19:16;;;;;;;2.42;0.55;;;11.20;90.20;;;;;;4919016;29;20075;-81
2022/10/07 08:21:44;;;;;;;3.75;0.73;;;11.30;89.70;;;;;;4903481;29;20047;-81
2022/10/07 08:24:16;;;;;;;5.10;0.60;;;11.40;89.70;;;;;;4934979;29;20412;-81
2022/10/07 08:26:44;;;;;;;4.75;0.80;;;11.40;89.70;;;;;;4934453;29;20078;-81
2022/10/07 08:29:14;;;;;;;3.25;1.10;;;11.40;89.80;;;;;;4919065;29;20044;-82
2022/10/07 08:31:41;;;;;;;1.83;0.47;;;11.40;89.80;;;;;;4918969;29;20052;-82
2022/10/07 08:34:09;;;;;;;2.45;0.70;;;11.50;89.80;;;;;;4934446;29;20093;-82
2022/10/07 08:36:37;;;;;;;2.35;0.60;;;11.60;89.80;;;;;;4915692;29;20055;-82
2022/10/07 08:39:05;;;;;;;4.25;0.63;;;11.70;89.70;;;;;;4925542;29;20115;-82
2022/10/07 08:41:44;;;;;;;2.90;0.40;;;11.80;89.60;;;;;;4934269;29;20481;-82
2022/10/07 08:44:17;;;;;;;1.73;0.40;;;11.90;89.40;;;;;;4915425;29;20056;-82
2022/10/07 08:47:10;;;;;;;4.40;0.57;;;11.90;89.40;;;;;;4932191;29;20120;-82
2022/10/07 08:49:48;;;;;;;3.75;0.73;;;12.00;89.30;;;;;;4918581;29;20052;-82
2022/10/07 08:52:28;;;;;;;7.30;0.90;;;12.10;89.20;;;;;;4906103;29;20099;-82
2022/10/07 08:54:55;;;;;;;5.63;1.20;;;12.20;89.00;;;;;;4918462;29;20142;-83
2022/10/07 08:57:31;;;;;;;4.50;0.73;;;12.30;89.00;;;;;;4918619;29;20047;-82
2022/10/07 09:00:04;;;;;;;2.72;0.50;;;12.40;88.80;;;;;;4934012;29;20103;-82
2022/10/07 09:02:53;;;;;;;3.97;0.85;;;12.50;88.70;;;;;;4918538;29;20396;-82
2022/10/07 09:05:25;;;;;;;3.90;0.60;;;12.60;88.50;;;;;;4922223;29;20040;-82
2022/10/07 09:07:58;;;;;;;4.55;0.60;;;12.80;88.30;;;;;;4921859;29;20060;-82
2022/10/07 09:10:48;;;;;;;5.25;0.65;;;12.90;88.10;;;;;;4922420;29;20043;-82
2022/10/07 09:13:29;;;;;;;3.22;0.60;;;13.00;88.00;;;;;;4906574;29;20138;-83
2022/10/07 09:16:26;;;;;;;3.22;0.65;;;13.10;88.10;;;;;;4907020;29;20044;-83
2022/10/07 09:18:56;;;;;;;5.70;0.60;;;13.20;87.80;;;;;;4906449;29;20075;-83
2022/10/07 09:21:50;;;;;;;5.32;0.85;;;13.30;87.80;;;;;;4906927;29;20122;-83
2022/10/07 09:24:27;;;;;;;4.88;1.00;;;13.40;87.50;;;;;;4906374;29;20058;-82
2022/10/07 09:26:57;;;;;;;5.47;0.80;;;13.60;87.20;;;;;;4921985;29;20075;-82
2022/10/07 09:29:27;;;;;;;5.00;0.40;;;13.90;86.80;;;;;;4921764;29;20047;-82
2022/10/07 09:31:56;;;;;;;7.38;0.70;;;14.10;86.40;;;;;;4906162;29;20047;-82
2022/10/07 09:34:27;;;;;;;5.15;0.50;;;14.30;86.20;;;;;;4921943;29;20052;-82
2022/10/07 09:37:20;;;;;;;6.13;0.70;;;14.40;85.90;;;;;;4909768;29;20143;-82
2022/10/07 09:39:50;;;;;;;4.97;0.70;;;14.50;85.30;;;;;;4921698;29;20127;-83
2022/10/07 09:42:23;;;;;;;5.35;0.73;;;14.60;85.40;;;;;;4921747;29;20036;-83
2022/10/07 09:44:56;;;;;;;5.10;0.77;;;14.70;85.30;;;;;;4921581;29;20099;-82
2022/10/07 09:47:26;;;;;;;3.22;0.95;;;14.70;85.20;;;;;;4921709;29;20496;-82
2022/10/07 09:50:01;;;;;;;3.95;0.70;;;14.80;85.20;;;;;;4921404;29;20055;-82
2022/10/07 09:52:30;;;;;;;4.85;0.50;;;14.80;85.00;;;;;;4921647;29;20056;-82
2022/10/07 09:55:42;;;;;;;5.25;0.60;;;14.90;84.90;;;;;;4901351;29;20416;-83
2022/10/07 09:58:23;;;;;;;7.30;0.93;;;15.00;84.60;;;;;;4902408;29;20056;-82
2022/10/07 10:00:53;;;;;;;4.85;0.93;;;15.10;84.30;;;;;;4926601;29;20559;-82
2022/10/07 10:03:31;;;;;;;6.00;0.85;;;15.20;84.10;;;;;;4921701;29;20047;-83
2022/10/07 10:06:05;;;;;;;3.38;0.80;;;15.30;83.50;;;;;;4936962;29;20444;-83
2022/10/07 10:08:38;;;;;;;6.72;1.30;;;15.40;83.10;;;;;;4937106;29;20070;-83
2022/10/07 10:11:22;;;;;;;4.47;0.90;;;15.50;82.80;;;;;;4937222;29;20066;-82
2022/10/07 10:13:50;;;;;;;7.45;0.80;;;15.40;82.50;;;;;;4921493;29;20074;-83
2022/10/07 10:16:23;;;;;;;5.88;0.73;;;15.50;82.50;;;;;;4905303;29;20124;-83
2022/10/07 10:18:57;;;;;;;4.70;0.70;;;15.60;82.10;;;;;;4936822;29;20091;-83
2022/10/07 10:21:29;;;;;;;7.32;0.88;;;15.70;82.10;;;;;;4935752;29;20142;-83
2022/10/07 10:24:02;;;;;;;4.13;0.70;;;15.70;81.70;;;;;;4930924;29;20067;-83
2022/10/07 10:26:55;;;;;;;7.05;1.33;;;15.90;81.80;;;;;;4936580;29;20456;-83
2022/10/07 10:29:53;;;;;;;4.93;0.98;;;16.00;80.90;;;;;;4936673;29;20056;-83
2022/10/07 10:32:45;;;;;;;6.00;0.88;;;16.10;80.30;;;;;;4936679;29;20047;-83
2022/10/07 10:35:20;;;;;;;7.60;1.10;;;16.20;80.20;;;;;;4908407;29;20055;-83
2022/10/07 10:38:23;;;;;;;3.38;1.05;;;16.30;79.20;;;;;;4936459;29;20071;-83
2022/10/07 10:41:13;;;;;;;6.20;0.88;;;16.30;78.70;;;;;;4912098;29;20558;-83
2022/10/07 10:44:05;;;;;;;6.88;0.88;;;16.30;79.00;;;;;;4936682;29;20044;-84
2022/10/07 10:46:53;;;;;;;4.32;0.60;;;16.50;78.60;;;;;;4936752;29;20089;-87
2022/10/07 10:49:40;;;;;;;4.45;0.82;;;16.50;78.70;;;;;;4920878;29;20060;-85
2022/10/07 10:52:28;;;;;;;4.60;1.13;;;16.60;78.10;;;;;;4934188;29;20051;-86
2022/10/07 10:55:40;;;;;;;4.47;0.65;;;16.70;77.90;;;;;;4936729;29;20211;-90
2022/10/07 10:58:24;;;;;;;7.03;1.03;;;16.80;77.70;;;;;;4908482;29;20051;-82
2022/10/07 11:00:56;;;;;;;3.78;0.50;;;16.90;77.40;;;;;;4937085;29;20063;-82
2022/10/07 11:03:40;;;;;;;6.95;0.60;;;16.90;77.60;;;;;;4920799;29;20402;-81
2022/10/07 11:06:11;;;;;;;5.38;0.65;;;16.90;77.20;;;;;;4937228;29;20050;-80
2022/10/07 11:08:38;;;;;;;4.82;0.52;;;16.70;77.40;;;;;;4904478;29;20050;-80
2022/10/07 11:11:13;;;;;;;2.10;0.50;;;16.50;77.60;;;;;;4909735;29;20469;-86
2022/10/07 11:13:58;;;;;;;4.68;0.73;;;16.40;77.60;;;;;;4920275;29;20059;-86
2022/10/07 11:16:44;;;;;;;6.10;0.65;;;16.30;78.00;;;;;;4904916;29;20413;-84
2022/10/07 11:19:36;;;;;;;5.22;0.60;;;16.20;77.70;;;;;;4919968;29;20095;-81
2022/10/07 11:22:12;;;;;;;3.60;0.93;;;16.20;77.90;;;;;;4920029;29;20047;-82
2022/10/07 11:24:46;;;;;;;2.30;0.40;;;16.20;78.10;;;;;;4919800;29;20102;-83
2022/10/07 11:27:26;;;;;;;2.45;0.50;;;16.10;78.30;;;;;;4903385;29;20078;-87
2022/10/07 11:30:15;;;;;;;1.95;0.40;;;16.10;78.50;;;;;;4919812;29;20048;-82
2022/10/07 11:32:55;;;;;;;2.40;0.40;;;16.10;78.60;;;;;;4914294;29;20123;-82
2022/10/07 11:35:30;;;;;;;2.53;0.40;;;16.10;78.60;;;;;;4910475;29;20051;-80
2022/10/07 11:38:09;;;;;;;4.30;0.47;;;16.10;78.40;;;;;;4919485;29;20066;-78
2022/10/07 11:40:45;;;;;;;4.35;0.40;;;16.20;78.40;;;;;;4936510;29;20039;-81
2022/10/07 11:43:32;;;;;;;4.53;0.60;;;16.20;78.50;;;;;;4932048;29;20044;-82
2022/10/07 11:46:13;;;;;;;3.90;0.60;;;16.20;78.10;;;;;;4911141;29;20068;-84
2022/10/07 11:48:49;;;;;;;4.38;0.70;;;16.30;76.90;;;;;;4933509;29;20118;-84
2022/10/07 11:52:00;;;;;;;3.45;0.65;;;16.40;76.20;;;;;;4912045;29;20051;-84
2022/10/07 11:54:58;;;;;;;6.22;0.40;;;16.50;76.50;;;;;;4892013;29;20066;-83
2022/10/07 11:57:30;;;;;;;2.90;0.65;;;16.50;76.70;;;;;;4907140;29;20051;-84
2022/10/07 12:00:26;;;;;;;5.05;0.60;;;16.60;76.50;;;;;;4903619;29;20161;-85
2022/10/07 12:02:56;;;;;;;4.65;0.47;;;16.60;76.50;;;;;;4894406;29;20083;-82
2022/10/07 12:05:35;;;;;;;2.58;0.52;;;16.60;76.40;;;;;;4901363;29;20044;-83
2022/10/07 12:08:29;;;;;;;9.48;1.00;;;16.70;75.70;;;;;;4920997;29;20051;-82
2022/10/07 12:11:11;;;;;;;7.05;0.80;;;16.70;74.00;;;;;;4906097;29;20056;-83
2022/10/07 12:13:45;;;;;;;5.43;0.50;;;16.80;74.40;;;;;;4900181;29;20725;-85
2022/10/07 12:16:28;;;;;;;2.15;0.50;;;16.80;74.90;;;;;;4908632;29;20052;-84
2022/10/07 12:19:06;;;;;;;4.22;0.70;;;16.80;75.10;;;;;;4903285;29;20052;-82
2022/10/07 12:21:58;;;;;;;4.03;0.43;;;16.80;75.20;;;;;;4915179;29;20131;-85
2022/10/07 12:24:27;;;;;;;5.25;0.70;;;16.80;74.80;;;;;;4903030;29;20047;-83
2022/10/07 12:26:56;;;;;;;4.50;0.82;;;16.80;74.40;;;;;;4887366;29;20048;-85
2022/10/07 12:29:34;;;;;;;2.90;0.38;;;16.90;74.40;;;;;;4903216;29;20055;-85
2022/10/07 12:32:01;;;;;;;5.60;0.40;;;16.90;74.60;;;;;;4912665;29;20061;-83
2022/10/07 12:34:34;;;;;;;4.00;0.50;;;16.90;74.80;;;;;;4903386;29;20055;-82
2022/10/07 12:37:44;;;;;;;5.50;0.38;;;16.90;74.50;;;;;;4902848;29;20056;-83
2022/10/07 12:40:21;;;;;;;3.63;0.50;;;17.00;74.70;;;;;;4918679;29;20183;-84
2022/10/07 12:42:57;;;;;;;2.00;0.50;;;17.00;74.90;;;;;;4903658;29;20134;-82
2022/10/07 12:45:30;;;;;;;1.88;0.28;;;17.00;74.60;;;;;;4906138;29;20126;-92
2022/10/07 12:48:02;;;;;;;2.80;0.32;;;17.00;74.30;;;;;;4919598;29;20492;-88
2022/10/07 12:50:31;;;;;;;2.45;0.30;;;17.00;74.40;;;;;;4887720;29;20047;-84
2022/10/07 12:53:01;;;;;;;5.20;0.50;;;17.00;74.40;;;;;;4935565;29;20058;-82
2022/10/07 12:55:43;;;;;;;2.70;0.30;;;17.00;74.60;;;;;;4903777;29;20146;-90
2022/10/07 13:01:44;;;;;;;2.28;0.50;;;17.00;74.60;;;;;;4919400;29;20048;-90
2022/10/07 13:05:00;;;;;;;3.15;0.43;;;17.00;74.40;;;;;;4920224;29;20052;-93
2022/10/07 13:07:50;;;;;;;4.95;0.98;;;17.10;74.00;;;;;;4919244;29;20524;-88
2022/10/07 13:11:11;;;;;;;3.83;0.70;;;17.10;72.20;;;;;;4904090;29;20071;-88
2022/10/07 13:13:52;;;;;;;5.65;0.50;;;17.20;71.70;;;;;;4858578;29;20399;-86
2022/10/07 13:16:45;;;;;;;5.18;0.65;;;17.20;70.90;;;;;;4934130;29;20470;-84
2022/10/07 13:19:18;;;;;;;;;;;17.20;70.00;;;;;;4929473;29;20040;-85
2022/10/07 13:22:10;;;;;;;2.80;0.73;;;17.20;70.00;;;;;;4919581;29;19954;-92
2022/10/07 13:24:46;;;;;;;4.38;0.65;;;17.30;70.30;;;;;;4903438;29;20083;-84
2022/10/07 13:27:20;;;;;;;4.20;0.68;;;17.30;70.30;;;;;;4918021;29;20131;-85
2022/10/07 13:29:49;;;;;;;5.03;0.70;;;17.30;70.40;;;;;;4917203;29;20075;-83
2022/10/07 13:32:23;;;;;;;4.60;0.40;;;17.30;70.60;;;;;;4902737;29;20118;-84
2022/10/07 13:34:51;;;;;;;1.90;0.30;;;17.30;70.90;;;;;;4902442;29;20564;-83
2022/10/07 13:37:35;;;;;;;2.33;0.40;;;17.30;71.30;;;;;;4902493;29;20139;-84
2022/10/07 13:40:25;;;;;;;3.72;0.73;;;17.30;71.50;;;;;;4902439;29;20126;-84
2022/10/07 13:42:58;;;;;;;3.67;0.40;;;17.20;71.60;;;;;;4902729;29;20051;-85